createdAt,value
2023-03-28T00:00:16.171Z,5.32
2023-03-28T00:01:49.364Z,5.47
2023-03-28T00:03:24.180Z,6.15
2023-03-28T00:04:57.143Z,5.93
2023-03-28T00:06:31.547Z,6.55
2023-03-28T00:08:03.540Z,5.18
2023-03-28T00:09:37.561Z,5.65
2023-03-28T00:11:12.584Z,8.05
2023-03-28T00:12:45.686Z,4.68
2023-03-28T00:14:18.724Z,6.40
2023-03-28T00:15:52.882Z,7.63
2023-03-28T00:17:26.210Z,6.37
2023-03-28T00:20:39.451Z,6.40
2023-03-28T00:22:12.326Z,5.53
2023-03-28T00:23:45.249Z,5.50
2023-03-28T00:25:18.389Z,6.43
2023-03-28T00:26:54.667Z,8.48
2023-03-28T00:28:26.737Z,6.85
2023-03-28T00:29:59.898Z,6.70
2023-03-28T00:31:34.837Z,8.27
2023-03-28T00:33:08.852Z,9.45
2023-03-28T00:34:43.369Z,9.80
2023-03-28T00:36:18.450Z,11.38
2023-03-28T00:37:58.469Z,9.57
2023-03-28T00:39:31.551Z,11.48
2023-03-28T00:41:05.937Z,11.10
2023-03-28T00:42:43.052Z,11.02
2023-03-28T00:44:47.366Z,11.25
2023-03-28T00:46:23.734Z,9.35
2023-03-28T00:48:01.872Z,9.75
2023-03-28T00:49:34.886Z,10.67
2023-03-28T00:51:09.370Z,9.88
2023-03-28T00:52:47.164Z,14.55
2023-03-28T00:54:21.790Z,9.30
2023-03-28T00:56:01.617Z,8.05
2023-03-28T00:57:38.269Z,10.90
2023-03-28T00:59:15.799Z,12.90
2023-03-28T01:00:49.173Z,7.60
2023-03-28T01:04:02.318Z,7.30
2023-03-28T01:05:37.309Z,9.03
2023-03-28T01:07:10.607Z,8.98
2023-03-28T01:08:46.297Z,10.20
2023-03-28T01:10:20.393Z,10.23
2023-03-28T01:11:54.971Z,12.70
2023-03-28T01:13:31.297Z,11.23
2023-03-28T01:15:04.221Z,9.73
2023-03-28T01:16:41.396Z,9.32
2023-03-28T01:18:16.261Z,11.73
2023-03-28T01:20:01.847Z,10.63
2023-03-28T01:22:10.220Z,12.90
2023-03-28T01:24:29.194Z,10.27
2023-03-28T01:26:38.830Z,10.20
2023-03-28T01:28:27.749Z,12.57
2023-03-28T01:30:25.620Z,9.40
2023-03-28T01:32:33.736Z,10.27
2023-03-28T01:34:31.123Z,11.02
2023-03-28T01:36:36.471Z,10.25
2023-03-28T01:38:18.335Z,9.55
2023-03-28T01:40:11.274Z,10.95
2023-03-28T01:41:54.698Z,15.18
2023-03-28T01:43:36.202Z,11.88
2023-03-28T01:45:15.893Z,12.40
2023-03-28T01:46:54.754Z,12.23
2023-03-28T01:48:37.897Z,12.75
2023-03-28T01:50:18.810Z,12.15
2023-03-28T01:51:58.508Z,11.30
2023-03-28T01:53:40.113Z,12.57
2023-03-28T01:55:20.516Z,14.57
2023-03-28T01:57:02.233Z,10.40
2023-03-28T01:58:46.480Z,12.93
2023-03-28T02:00:25.238Z,10.57
2023-03-28T02:02:03.962Z,15.05
2023-03-28T02:03:39.517Z,10.35
2023-03-28T02:05:16.383Z,14.23
2023-03-28T02:06:52.449Z,14.40
2023-03-28T02:08:29.528Z,16.87
2023-03-28T02:10:07.274Z,14.68
2023-03-28T02:11:41.699Z,12.95
2023-03-28T02:13:18.837Z,13.47
2023-03-28T02:14:53.388Z,13.98
2023-03-28T02:16:26.867Z,14.13
2023-03-28T02:18:05.057Z,18.97
2023-03-28T02:19:38.596Z,15.93
2023-03-28T02:21:18.447Z,16.43
2023-03-28T02:22:54.073Z,13.67
2023-03-28T02:24:27.205Z,16.95
2023-03-28T02:26:01.038Z,16.05
2023-03-28T02:27:36.835Z,16.63
2023-03-28T02:29:10.776Z,14.90
2023-03-28T02:30:44.916Z,15.68
2023-03-28T02:32:17.484Z,12.70
2023-03-28T02:33:52.020Z,13.80
2023-03-28T02:35:31.174Z,15.30
2023-03-28T02:37:13.244Z,13.13
2023-03-28T02:38:56.198Z,14.67
2023-03-28T02:40:41.664Z,12.63
2023-03-28T02:42:41.539Z,10.90
2023-03-28T02:44:31.213Z,14.90
2023-03-28T02:46:32.988Z,16.87
2023-03-28T02:48:20.240Z,16.50
2023-03-28T02:50:08.092Z,19.17
2023-03-28T02:51:48.140Z,17.07
2023-03-28T02:53:27.649Z,16.65
2023-03-28T02:55:12.337Z,13.87
2023-03-28T02:56:51.267Z,14.63
2023-03-28T02:58:29.598Z,16.23
2023-03-28T03:00:12.617Z,15.33
2023-03-28T03:01:46.538Z,15.45
2023-03-28T03:03:18.656Z,16.15
2023-03-28T03:04:52.114Z,13.50
2023-03-28T03:07:57.442Z,14.17
2023-03-28T03:09:30.614Z,12.77
2023-03-28T03:11:02.612Z,13.40
2023-03-28T03:12:36.083Z,13.97
2023-03-28T03:14:10.609Z,11.97
2023-03-28T03:15:43.676Z,15.13
2023-03-28T03:17:17.087Z,17.50
2023-03-28T03:18:50.244Z,13.15
2023-03-28T03:20:22.881Z,15.25
2023-03-28T03:21:55.881Z,13.35
2023-03-28T03:23:28.983Z,15.95
2023-03-28T03:25:06.553Z,14.65
2023-03-28T03:26:39.618Z,14.48
2023-03-28T03:28:14.000Z,14.00
2023-03-28T03:29:48.675Z,15.70
2023-03-28T03:31:21.770Z,16.73
2023-03-28T03:32:55.986Z,16.08
2023-03-28T03:34:29.157Z,17.07
2023-03-28T03:36:02.574Z,14.32
2023-03-28T03:37:35.886Z,14.53
2023-03-28T03:39:09.179Z,14.07
2023-03-28T03:40:41.606Z,14.35
2023-03-28T03:42:15.076Z,17.33
2023-03-28T03:45:22.673Z,12.07
2023-03-28T03:46:56.574Z,13.57
2023-03-28T03:48:29.713Z,16.50
2023-03-28T03:50:02.759Z,14.63
2023-03-28T03:51:35.844Z,14.27
2023-03-28T03:53:07.884Z,13.10
2023-03-28T03:54:40.938Z,14.07
2023-03-28T03:56:13.866Z,16.00
2023-03-28T03:57:45.895Z,15.25
2023-03-28T03:59:18.929Z,13.80
2023-03-28T04:00:53.299Z,12.65
2023-03-28T04:02:26.376Z,12.97
2023-03-28T04:03:59.418Z,15.18
2023-03-28T04:05:31.417Z,14.15
2023-03-28T04:07:04.498Z,12.47
2023-03-28T04:08:37.654Z,19.45
2023-03-28T04:10:11.549Z,12.65
2023-03-28T04:11:44.439Z,14.97
2023-03-28T04:13:17.535Z,11.55
2023-03-28T04:14:50.581Z,13.75
2023-03-28T04:16:24.908Z,28.02
2023-03-28T04:17:57.855Z,16.43
2023-03-28T04:19:29.946Z,19.90
2023-03-28T04:21:03.475Z,20.17
2023-03-28T04:22:36.877Z,40.57
2023-03-28T04:24:21.056Z,46.53
2023-03-28T04:25:55.728Z,34.80
2023-03-28T04:27:31.349Z,31.40
2023-03-28T04:29:05.219Z,20.07
2023-03-28T04:30:38.571Z,22.87
2023-03-28T04:35:19.415Z,20.50
2023-03-28T04:36:52.337Z,16.63
2023-03-28T04:38:27.132Z,21.02
2023-03-28T04:40:01.617Z,13.97
2023-03-28T04:41:34.529Z,16.87
2023-03-28T04:43:07.471Z,13.23
2023-03-28T04:44:40.402Z,14.05
2023-03-28T04:46:13.387Z,12.95
2023-03-28T04:47:48.310Z,14.93
2023-03-28T04:49:21.822Z,11.87
2023-03-28T04:50:55.624Z,11.33
2023-03-28T04:52:28.536Z,11.77
2023-03-28T04:54:01.402Z,11.85
2023-03-28T04:55:34.298Z,13.45
2023-03-28T04:57:07.349Z,13.93
2023-03-28T04:58:41.030Z,11.18
2023-03-28T05:00:16.795Z,13.17
2023-03-28T05:01:50.295Z,13.87
2023-03-28T05:03:25.774Z,13.52
2023-03-28T05:04:58.854Z,13.88
2023-03-28T05:06:31.752Z,13.82
2023-03-28T05:08:04.726Z,13.60
2023-03-28T05:09:38.028Z,12.38
2023-03-28T05:12:43.806Z,17.40
2023-03-28T05:14:17.188Z,12.93
2023-03-28T05:17:23.160Z,13.27
2023-03-28T05:18:59.033Z,13.00
2023-03-28T05:20:32.676Z,13.60
2023-03-28T05:22:05.936Z,15.97
2023-03-28T05:23:39.073Z,14.30
2023-03-28T05:25:12.465Z,12.80
2023-03-28T05:28:18.204Z,13.03
2023-03-28T05:29:51.282Z,15.00
2023-03-28T05:31:26.146Z,12.63
2023-03-28T05:32:59.507Z,10.18
2023-03-28T05:36:08.005Z,12.37
2023-03-28T05:37:43.537Z,15.53
2023-03-28T05:39:17.697Z,11.17
2023-03-28T05:40:50.680Z,13.63
2023-03-28T05:42:23.665Z,13.25
2023-03-28T05:43:56.615Z,15.65
2023-03-28T05:45:29.718Z,10.40
2023-03-28T05:47:02.697Z,14.27
2023-03-28T05:48:36.872Z,11.05
2023-03-28T05:50:11.910Z,18.55
2023-03-28T05:51:45.557Z,18.67
2023-03-28T05:53:18.632Z,13.13
2023-03-28T05:54:52.087Z,12.63
2023-03-28T05:56:25.957Z,11.07
2023-03-28T05:57:59.474Z,9.60
2023-03-28T05:59:32.501Z,10.52
2023-03-28T06:01:05.687Z,9.70
2023-03-28T06:02:38.674Z,12.75
2023-03-28T06:04:11.656Z,11.75
2023-03-28T06:05:46.088Z,10.32
2023-03-28T06:07:25.465Z,14.18
2023-03-28T06:09:05.258Z,11.07
2023-03-28T06:10:38.425Z,14.98
2023-03-28T06:12:11.796Z,11.50
2023-03-28T06:15:17.453Z,10.13
2023-03-28T06:16:50.453Z,10.25
2023-03-28T06:18:23.763Z,12.10
2023-03-28T06:19:56.764Z,13.02
2023-03-28T06:21:31.086Z,14.55
2023-03-28T06:23:04.142Z,12.68
2023-03-28T06:24:37.198Z,16.08
2023-03-28T06:26:10.159Z,12.40
2023-03-28T06:27:43.140Z,19.02
2023-03-28T06:29:16.890Z,13.18
2023-03-28T06:30:50.639Z,11.60
2023-03-28T06:32:23.766Z,9.52
2023-03-28T06:33:56.775Z,13.63
2023-03-28T06:35:29.876Z,8.82
2023-03-28T06:37:04.253Z,12.77
2023-03-28T06:38:37.396Z,15.05
2023-03-28T06:40:11.653Z,10.77
2023-03-28T06:41:44.704Z,10.77
2023-03-28T06:43:17.634Z,13.95
2023-03-28T06:44:50.634Z,10.88
2023-03-28T06:46:23.850Z,9.73
2023-03-28T06:47:56.934Z,10.90
2023-03-28T06:49:29.954Z,11.10
2023-03-28T06:51:02.878Z,14.25
2023-03-28T06:52:37.205Z,12.48
2023-03-28T06:54:10.358Z,9.90
2023-03-28T06:55:43.439Z,12.80
2023-03-28T06:57:16.622Z,14.75
2023-03-28T06:58:49.695Z,11.32
2023-03-28T07:00:23.490Z,19.23
2023-03-28T07:01:56.458Z,9.68
2023-03-28T07:03:30.108Z,11.65
2023-03-28T07:05:03.266Z,11.75
2023-03-28T07:06:36.476Z,12.98
2023-03-28T07:08:12.916Z,10.43
2023-03-28T07:09:46.043Z,13.55
2023-03-28T07:11:19.011Z,10.32
2023-03-28T07:12:51.897Z,12.38
2023-03-28T07:14:24.982Z,12.20
2023-03-28T07:16:02.197Z,14.70
2023-03-28T07:17:35.328Z,11.60
2023-03-28T07:19:08.388Z,13.05
2023-03-28T07:20:43.028Z,16.35
2023-03-28T07:22:17.013Z,11.15
2023-03-28T07:23:51.465Z,8.50
2023-03-28T07:25:25.073Z,12.35
2023-03-28T07:27:13.998Z,9.52
2023-03-28T07:28:47.464Z,13.60
2023-03-28T07:30:20.661Z,10.75
2023-03-28T07:31:53.582Z,7.75
2023-03-28T07:33:34.858Z,14.25
2023-03-28T07:35:10.139Z,17.17
2023-03-28T07:36:43.360Z,11.88
2023-03-28T07:38:16.821Z,10.52
2023-03-28T07:41:23.781Z,10.52
2023-03-28T07:42:56.708Z,13.13
2023-03-28T07:44:29.626Z,13.30
2023-03-28T07:46:03.550Z,12.93
2023-03-28T07:47:36.547Z,15.20
2023-03-28T07:49:10.649Z,8.93
2023-03-28T07:50:44.708Z,12.77
2023-03-28T07:52:17.689Z,14.75
2023-03-28T07:53:50.696Z,13.80
2023-03-28T07:55:26.146Z,10.52
2023-03-28T07:56:59.119Z,10.25
2023-03-28T07:58:32.127Z,16.20
2023-03-28T08:00:13.255Z,11.05
2023-03-28T08:01:47.328Z,17.20
2023-03-28T08:03:23.527Z,10.02
2023-03-28T08:04:56.747Z,11.25
2023-03-28T08:06:32.442Z,13.57
2023-03-28T08:08:06.366Z,11.43
2023-03-28T08:09:39.359Z,12.32
2023-03-28T08:11:14.308Z,11.52
2023-03-28T08:12:47.240Z,9.95
2023-03-28T08:14:20.372Z,12.00
2023-03-28T08:15:55.625Z,13.18
2023-03-28T08:17:28.628Z,9.30
2023-03-28T08:19:10.736Z,8.32
2023-03-28T08:20:44.951Z,7.05
2023-03-28T08:22:17.922Z,9.15
2023-03-28T08:23:50.946Z,10.02
2023-03-28T08:25:23.906Z,8.57
2023-03-28T08:26:58.167Z,9.30
2023-03-28T08:28:31.576Z,8.00
2023-03-28T08:31:37.975Z,6.37
2023-03-28T08:33:11.462Z,8.15
2023-03-28T08:36:17.182Z,9.75
2023-03-28T08:37:50.637Z,9.88
2023-03-28T08:39:24.316Z,4.25
2023-03-28T08:41:05.427Z,8.27
2023-03-28T08:42:55.266Z,9.00
2023-03-28T08:44:48.303Z,12.07
2023-03-28T08:46:24.170Z,9.82
2023-03-28T08:48:06.008Z,10.00
2023-03-28T08:49:46.521Z,10.13
2023-03-28T08:51:23.542Z,8.15
2023-03-28T08:52:56.550Z,10.55
2023-03-28T08:54:36.898Z,8.85
2023-03-28T08:56:10.905Z,8.27
2023-03-28T08:57:46.616Z,6.95
2023-03-28T08:59:24.594Z,9.13
2023-03-28T09:00:57.612Z,7.18
2023-03-28T09:02:32.424Z,11.80
2023-03-28T09:04:05.937Z,5.10
2023-03-28T09:05:47.039Z,5.63
2023-03-28T09:07:35.115Z,7.18
2023-03-28T09:09:46.983Z,7.78
2023-03-28T09:11:35.919Z,8.73
2023-03-28T09:13:23.661Z,9.95
2023-03-28T09:15:18.963Z,9.10
2023-03-28T09:17:05.812Z,10.63
2023-03-28T09:18:57.448Z,8.55
2023-03-28T09:20:37.456Z,7.07
2023-03-28T09:22:24.818Z,9.82
2023-03-28T09:24:22.942Z,7.78
2023-03-28T09:26:02.286Z,7.45
2023-03-28T09:27:54.681Z,7.38
2023-03-28T09:29:31.457Z,5.70
2023-03-28T09:31:09.080Z,7.28
2023-03-28T09:32:43.393Z,7.60
2023-03-28T09:34:21.558Z,9.10
2023-03-28T09:35:58.153Z,7.38
2023-03-28T09:37:36.537Z,9.05
2023-03-28T09:39:19.231Z,4.03
2023-03-28T09:40:55.353Z,5.78
2023-03-28T09:42:37.642Z,5.88
2023-03-28T09:44:14.703Z,5.57
2023-03-28T09:46:00.303Z,6.72
2023-03-28T09:47:34.199Z,8.32
2023-03-28T09:49:07.295Z,6.10
2023-03-28T09:50:40.859Z,9.48
2023-03-28T09:52:19.653Z,9.50
2023-03-28T09:53:52.684Z,2.22
2023-03-28T09:55:28.669Z,3.90
2023-03-28T09:57:03.932Z,5.45
2023-03-28T09:58:50.628Z,4.30
2023-03-28T10:00:23.714Z,4.88
2023-03-28T10:01:59.375Z,5.38
2023-03-28T10:03:34.894Z,4.70
2023-03-28T10:05:35.121Z,3.22
2023-03-28T10:07:33.812Z,6.85
2023-03-28T10:09:19.328Z,4.80
2023-03-28T10:11:02.690Z,7.40
2023-03-28T10:12:37.927Z,9.40
2023-03-28T10:14:30.675Z,7.78
2023-03-28T10:16:06.162Z,5.13
2023-03-28T10:17:42.119Z,5.05
2023-03-28T10:19:23.496Z,10.13
2023-03-28T10:20:57.548Z,4.82
2023-03-28T10:22:34.555Z,5.97
2023-03-28T10:24:09.402Z,6.55
2023-03-28T10:25:44.422Z,3.65
2023-03-28T10:27:23.835Z,5.20
2023-03-28T10:29:02.322Z,4.63
2023-03-28T10:30:38.701Z,3.92
2023-03-28T10:32:14.097Z,4.70
2023-03-28T10:33:53.666Z,5.13
2023-03-28T10:35:30.975Z,6.47
2023-03-28T10:37:04.141Z,4.85
2023-03-28T10:38:39.013Z,3.13
2023-03-28T10:40:25.997Z,4.53
2023-03-28T10:42:00.774Z,4.55
2023-03-28T10:43:36.698Z,3.97
2023-03-28T10:45:21.362Z,4.68
2023-03-28T10:46:54.829Z,8.40
2023-03-28T10:48:30.992Z,9.15
2023-03-28T10:50:07.735Z,5.90
2023-03-28T10:51:42.679Z,7.13
2023-03-28T10:53:32.952Z,8.02
2023-03-28T10:55:15.062Z,7.25
2023-03-28T10:56:52.645Z,12.35
2023-03-28T10:58:36.013Z,7.68
2023-03-28T11:00:13.438Z,5.43
2023-03-28T11:01:58.742Z,4.95
2023-03-28T11:03:44.437Z,5.10
2023-03-28T11:05:38.289Z,5.10
2023-03-28T11:07:19.008Z,6.18
2023-03-28T11:09:04.092Z,8.63
2023-03-28T11:10:43.233Z,6.88
2023-03-28T11:12:40.932Z,7.18
2023-03-28T11:14:29.556Z,10.73
2023-03-28T11:16:12.296Z,6.25
2023-03-28T11:17:56.480Z,6.25
2023-03-28T11:20:00.335Z,6.72
2023-03-28T11:21:44.940Z,10.85
2023-03-28T11:23:44.373Z,7.45
2023-03-28T11:25:24.692Z,7.45
2023-03-28T11:27:15.547Z,6.65
2023-03-28T11:29:16.695Z,7.88
2023-03-28T11:30:54.356Z,6.28
2023-03-28T11:32:31.810Z,7.47
2023-03-28T11:34:12.824Z,7.18
2023-03-28T11:35:50.185Z,9.55
2023-03-28T11:37:29.503Z,8.85
2023-03-28T11:39:07.131Z,10.10
2023-03-28T11:40:51.566Z,7.72
2023-03-28T11:42:30.143Z,4.97
2023-03-28T11:44:08.368Z,7.47
2023-03-28T11:45:52.001Z,6.05
2023-03-28T11:47:32.544Z,6.35
2023-03-28T11:49:15.404Z,7.57
2023-03-28T11:50:55.076Z,6.88
2023-03-28T11:52:37.740Z,4.82
2023-03-28T11:54:14.567Z,4.85
2023-03-28T11:55:52.638Z,6.00
2023-03-28T11:57:30.278Z,6.10
2023-03-28T11:59:07.532Z,5.00
2023-03-28T12:00:45.370Z,6.43
2023-03-28T12:02:35.824Z,4.75
2023-03-28T12:04:14.563Z,4.65
2023-03-28T12:05:52.480Z,5.10
2023-03-28T12:07:38.748Z,6.60
2023-03-28T12:09:18.421Z,7.45
2023-03-28T12:10:56.585Z,6.20
2023-03-28T12:12:33.166Z,5.70
2023-03-28T12:14:15.213Z,9.60
2023-03-28T12:15:51.624Z,6.63
2023-03-28T12:17:29.628Z,6.63
2023-03-28T12:19:05.303Z,5.75
2023-03-28T12:20:45.285Z,6.60
2023-03-28T12:22:26.705Z,5.60
2023-03-28T12:25:48.237Z,6.07
2023-03-28T12:27:27.690Z,7.72
2023-03-28T12:29:08.529Z,5.55
2023-03-28T12:30:48.923Z,4.45
2023-03-28T12:32:37.731Z,4.53
2023-03-28T12:34:18.601Z,5.22
2023-03-28T12:35:57.522Z,6.88
2023-03-28T12:37:34.240Z,8.25
2023-03-28T12:39:37.024Z,6.47
2023-03-28T12:41:17.150Z,7.03
2023-03-28T12:42:51.782Z,6.63
2023-03-28T12:44:28.076Z,4.80
2023-03-28T12:46:03.886Z,7.93
2023-03-28T12:47:41.828Z,4.60
2023-03-28T12:49:21.667Z,6.50
2023-03-28T12:50:59.003Z,7.38
2023-03-28T12:52:52.890Z,6.22
2023-03-28T12:54:28.743Z,4.57
2023-03-28T12:56:04.389Z,5.22
2023-03-28T12:57:48.143Z,5.70
2023-03-28T13:01:36.639Z,4.22
2023-03-28T13:03:18.471Z,5.68
2023-03-28T13:05:00.869Z,6.22
2023-03-28T13:06:43.738Z,3.95
2023-03-28T13:10:43.287Z,4.80
2023-03-28T13:12:35.945Z,5.88
2023-03-28T13:14:32.873Z,6.68
2023-03-28T13:16:08.824Z,4.20
2023-03-28T13:17:47.469Z,7.28
2023-03-28T13:19:20.599Z,5.00
2023-03-28T13:20:54.410Z,4.22
2023-03-28T13:22:32.874Z,4.28
2023-03-28T13:24:12.554Z,4.95
2023-03-28T13:25:55.645Z,7.07
2023-03-28T13:27:33.735Z,6.72
2023-03-28T13:29:08.845Z,7.47
2023-03-28T13:30:45.562Z,5.65
2023-03-28T13:32:21.558Z,4.95
2023-03-28T13:33:58.733Z,8.73
2023-03-28T13:35:46.692Z,5.03
2023-03-28T13:37:23.177Z,4.55
2023-03-28T13:39:24.972Z,9.50
2023-03-28T13:41:00.771Z,9.23
2023-03-28T13:42:35.433Z,5.57
2023-03-28T13:44:13.232Z,5.55
2023-03-28T13:45:47.566Z,5.50
2023-03-28T13:47:28.752Z,7.53
2023-03-28T13:49:07.139Z,7.30
2023-03-28T13:50:40.810Z,4.80
2023-03-28T13:52:18.818Z,3.75
2023-03-28T13:53:51.928Z,5.22
2023-03-28T13:55:27.108Z,7.13
2023-03-28T13:57:04.316Z,5.40
2023-03-28T13:58:37.842Z,4.68
2023-03-28T14:00:17.239Z,4.85
2023-03-28T14:01:55.195Z,3.38
2023-03-28T14:03:28.923Z,5.85
2023-03-28T14:05:14.453Z,6.63
2023-03-28T14:06:48.229Z,6.25
2023-03-28T14:08:25.634Z,6.32
2023-03-28T14:09:58.959Z,7.70
2023-03-28T14:11:36.321Z,7.75
2023-03-28T14:13:14.049Z,8.98
2023-03-28T14:14:49.152Z,5.60
2023-03-28T14:16:22.135Z,7.43
2023-03-28T14:17:59.671Z,6.20
2023-03-28T14:19:38.409Z,7.82
2023-03-28T14:21:11.910Z,6.13
2023-03-28T14:22:59.823Z,5.32
2023-03-28T14:24:34.483Z,5.05
2023-03-28T14:27:43.271Z,5.65
2023-03-28T14:29:18.553Z,6.72
2023-03-28T14:30:51.613Z,6.40
2023-03-28T14:32:26.759Z,5.82
2023-03-28T14:34:05.045Z,5.90
2023-03-28T14:35:39.993Z,4.63
2023-03-28T14:37:18.433Z,4.28
2023-03-28T14:38:51.551Z,5.35
2023-03-28T14:40:32.458Z,4.38
2023-03-28T14:42:07.299Z,22.33
2023-03-28T14:43:40.641Z,9.95
2023-03-28T14:46:49.495Z,9.52
2023-03-28T14:48:26.586Z,17.25
2023-03-28T14:50:02.087Z,8.50
2023-03-28T14:51:48.661Z,10.07
2023-03-28T14:53:53.773Z,5.85
2023-03-28T14:55:27.305Z,5.90
2023-03-28T14:57:00.975Z,6.18
2023-03-28T14:58:35.116Z,6.70
2023-03-28T15:00:15.035Z,9.15
2023-03-28T15:01:49.951Z,4.55
2023-03-28T15:03:27.059Z,8.48
2023-03-28T15:05:05.875Z,7.25
2023-03-28T15:06:39.462Z,5.80
2023-03-28T15:08:25.435Z,6.22
2023-03-28T15:10:07.424Z,4.55
2023-03-28T15:11:43.585Z,5.53
2023-03-28T15:13:23.274Z,6.00
2023-03-28T15:14:56.465Z,9.73
2023-03-28T15:16:32.235Z,5.35
2023-03-28T15:18:09.537Z,4.05
2023-03-28T15:19:42.845Z,5.18
2023-03-28T15:21:17.498Z,6.78
2023-03-28T15:22:55.491Z,8.20
2023-03-28T15:24:29.777Z,6.88
2023-03-28T15:26:05.931Z,7.00
2023-03-28T15:27:39.053Z,7.47
2023-03-28T15:29:18.143Z,6.55
2023-03-28T15:30:51.203Z,9.07
2023-03-28T15:32:24.695Z,4.68
2023-03-28T15:33:59.532Z,5.38
2023-03-28T15:35:37.872Z,5.55
2023-03-28T15:37:17.279Z,4.25
2023-03-28T15:38:52.184Z,3.92
2023-03-28T15:40:29.191Z,6.45
2023-03-28T15:42:25.844Z,7.03
2023-03-28T15:44:21.809Z,5.45
2023-03-28T15:45:56.931Z,5.78
2023-03-28T15:47:31.345Z,5.95
2023-03-28T15:49:06.745Z,7.55
2023-03-28T15:50:41.305Z,6.22
2023-03-28T15:52:19.868Z,7.28
2023-03-28T15:53:52.854Z,4.18
2023-03-28T15:55:28.134Z,6.80
2023-03-28T15:57:03.393Z,5.97
2023-03-28T15:58:43.095Z,7.05
2023-03-28T16:00:40.945Z,5.45
2023-03-28T16:02:32.061Z,6.68
2023-03-28T16:04:27.770Z,4.47
2023-03-28T16:06:30.914Z,6.13
2023-03-28T16:08:23.013Z,5.28
2023-03-28T16:09:55.938Z,8.20
2023-03-28T16:11:29.171Z,4.57
2023-03-28T16:13:14.407Z,4.97
2023-03-28T16:14:51.075Z,6.07
2023-03-28T16:16:29.979Z,4.85
2023-03-28T16:18:03.301Z,6.68
2023-03-28T16:21:11.435Z,9.82
2023-03-28T16:22:45.147Z,9.65
2023-03-28T16:24:19.717Z,6.80
2023-03-28T16:25:53.864Z,8.75
2023-03-28T16:27:27.278Z,6.80
2023-03-28T16:29:00.186Z,5.45
2023-03-28T16:30:40.407Z,6.25
2023-03-28T16:32:13.773Z,7.28
2023-03-28T16:35:19.708Z,5.57
2023-03-28T16:36:53.105Z,5.75
2023-03-28T16:40:02.714Z,5.35
2023-03-28T16:41:37.443Z,8.65
2023-03-28T16:44:44.215Z,7.28
2023-03-28T16:46:17.458Z,8.98
2023-03-28T16:49:24.054Z,7.30
2023-03-28T16:50:58.726Z,9.23
2023-03-28T16:52:31.814Z,9.13
2023-03-28T16:54:04.944Z,5.25
2023-03-28T16:55:39.724Z,17.55
2023-03-28T16:57:12.795Z,18.50
2023-03-28T16:58:45.800Z,30.52
2023-03-28T17:00:20.061Z,21.13
2023-03-28T17:01:53.815Z,30.65
2023-03-28T17:03:26.880Z,23.85
2023-03-28T17:04:59.893Z,21.85
2023-03-28T17:06:32.850Z,18.17
2023-03-28T17:08:06.256Z,10.05
2023-03-28T17:11:14.128Z,12.63
2023-03-28T17:12:47.501Z,12.18
2023-03-28T17:15:53.781Z,25.60
2023-03-28T17:17:26.924Z,14.02
2023-03-28T17:18:59.886Z,10.27
2023-03-28T17:20:33.010Z,10.45
2023-03-28T17:22:05.941Z,28.27
2023-03-28T17:23:40.463Z,18.77
2023-03-28T17:25:13.458Z,17.23
2023-03-28T17:26:47.768Z,10.90
2023-03-28T17:28:20.680Z,8.40
2023-03-28T17:29:53.587Z,14.63
2023-03-28T17:31:27.610Z,9.82
2023-03-28T17:33:00.810Z,11.75
2023-03-28T17:34:35.833Z,6.75
2023-03-28T17:36:19.605Z,7.30
2023-03-28T17:37:54.015Z,6.72
2023-03-28T17:39:27.148Z,6.82
2023-03-28T17:41:00.261Z,5.65
2023-03-28T17:42:34.703Z,6.25
2023-03-28T17:44:08.979Z,12.80
2023-03-28T17:45:41.963Z,10.80
2023-03-28T17:47:15.132Z,7.15
2023-03-28T17:48:48.477Z,5.88
2023-03-28T17:50:21.493Z,5.88
2023-03-28T17:51:54.652Z,6.30
2023-03-28T17:53:27.588Z,7.07
2023-03-28T17:55:01.375Z,8.55
2023-03-28T17:56:34.304Z,6.88
2023-03-28T17:58:08.591Z,6.90
2023-03-28T17:59:41.736Z,6.65
2023-03-28T18:01:16.598Z,5.38
2023-03-28T18:02:51.446Z,6.90
2023-03-28T18:04:24.409Z,8.32
2023-03-28T18:06:00.548Z,8.57
2023-03-28T18:07:34.830Z,7.13
2023-03-28T18:09:07.776Z,6.32
2023-03-28T18:10:41.387Z,10.63
2023-03-28T18:12:14.375Z,5.35
2023-03-28T18:13:48.750Z,6.28
2023-03-28T18:15:21.976Z,9.60
2023-03-28T18:16:56.328Z,7.35
2023-03-28T18:18:29.285Z,7.57
2023-03-28T18:20:02.235Z,7.85
2023-03-28T18:21:35.250Z,7.13
2023-03-28T18:23:08.401Z,6.85
2023-03-28T18:24:41.367Z,7.10
2023-03-28T18:26:14.310Z,7.50
2023-03-28T18:27:47.236Z,6.45
2023-03-28T18:29:21.907Z,8.23
2023-03-28T18:30:55.500Z,6.53
2023-03-28T18:32:28.742Z,8.30
2023-03-28T18:34:05.045Z,6.25
2023-03-28T18:35:38.029Z,8.27
2023-03-28T18:37:12.326Z,6.53
2023-03-28T18:38:46.514Z,10.63
2023-03-28T18:40:19.616Z,9.07
2023-03-28T18:41:52.552Z,10.65
2023-03-28T18:43:25.593Z,8.88
2023-03-28T18:44:59.826Z,8.35
2023-03-28T18:46:33.757Z,8.88
2023-03-28T18:48:08.871Z,8.82
2023-03-28T18:49:41.991Z,6.68
2023-03-28T18:51:15.717Z,7.45
2023-03-28T18:52:48.779Z,8.27
2023-03-28T18:54:22.190Z,8.95
2023-03-28T18:57:31.537Z,6.63
2023-03-28T18:59:05.075Z,8.55
2023-03-28T19:00:40.619Z,5.85
2023-03-28T19:02:15.203Z,6.88
2023-03-28T19:03:49.748Z,9.93
2023-03-28T19:05:24.501Z,6.85
2023-03-28T19:06:57.531Z,9.27
2023-03-28T19:08:30.912Z,7.05
2023-03-28T19:11:37.216Z,8.65
2023-03-28T19:13:10.123Z,9.43
2023-03-28T19:14:43.083Z,6.28
2023-03-28T19:16:19.185Z,6.45
2023-03-28T19:17:52.374Z,6.53
2023-03-28T19:19:25.853Z,7.97
2023-03-28T19:22:31.904Z,9.50
2023-03-28T19:24:05.164Z,7.45
2023-03-28T19:25:38.320Z,5.80
2023-03-28T19:27:11.263Z,6.55
2023-03-28T19:28:44.189Z,9.18
2023-03-28T19:30:17.397Z,6.60
2023-03-28T19:31:52.675Z,11.07
2023-03-28T19:33:25.876Z,11.05
2023-03-28T19:34:58.797Z,12.93
2023-03-28T19:36:31.673Z,9.65
2023-03-28T19:38:04.635Z,10.25
2023-03-28T19:39:37.604Z,6.32
2023-03-28T19:41:18.883Z,7.38
2023-03-28T19:42:51.779Z,7.03
2023-03-28T19:44:24.870Z,8.80
2023-03-28T19:46:03.681Z,9.95
2023-03-28T19:47:38.188Z,6.15
2023-03-28T19:49:11.405Z,7.35
2023-03-28T19:50:44.692Z,6.50
2023-03-28T19:52:17.636Z,6.13
2023-03-28T19:53:50.620Z,6.85
2023-03-28T19:55:23.885Z,5.28
2023-03-28T19:56:56.956Z,15.90
2023-03-28T19:58:31.010Z,7.85
2023-03-28T20:00:04.747Z,8.57
2023-03-28T20:01:38.135Z,6.18
2023-03-28T20:04:45.903Z,8.02
2023-03-28T20:06:18.775Z,8.90
2023-03-28T20:07:51.712Z,6.05
2023-03-28T20:09:24.920Z,5.80
2023-03-28T20:10:58.490Z,7.07
2023-03-28T20:12:32.532Z,6.10
2023-03-28T20:14:05.566Z,8.50
2023-03-28T20:15:41.373Z,9.48
2023-03-28T20:17:14.580Z,5.90
2023-03-28T20:18:48.907Z,5.78
2023-03-28T20:20:23.942Z,6.35
2023-03-28T20:21:56.822Z,7.30
2023-03-28T20:23:31.948Z,6.22
2023-03-28T20:25:05.352Z,5.50
2023-03-28T20:29:46.911Z,4.50
2023-03-28T20:31:20.605Z,5.35
2023-03-28T20:32:53.578Z,7.00
2023-03-28T20:34:28.027Z,7.40
2023-03-28T20:36:01.646Z,5.43
2023-03-28T20:37:34.716Z,4.25
2023-03-28T20:39:08.858Z,6.93
2023-03-28T20:40:41.812Z,5.63
2023-03-28T20:42:14.743Z,4.68
2023-03-28T20:43:47.968Z,7.20
2023-03-28T20:46:55.970Z,6.15
2023-03-28T20:48:36.404Z,5.53
2023-03-28T20:50:11.674Z,4.45
2023-03-28T20:51:45.050Z,8.88
2023-03-28T20:54:51.084Z,5.90
2023-03-28T20:56:24.785Z,5.10
2023-03-28T20:57:58.046Z,6.43
2023-03-28T20:59:32.088Z,5.72
2023-03-28T21:01:05.131Z,5.80
2023-03-28T21:02:38.334Z,7.35
2023-03-28T21:04:11.735Z,6.43
2023-03-28T21:07:19.543Z,5.80
2023-03-28T21:08:54.223Z,8.65
2023-03-28T21:10:27.943Z,7.45
2023-03-28T21:12:00.908Z,5.72
2023-03-28T21:13:33.988Z,7.05
2023-03-28T21:15:08.417Z,6.80
2023-03-28T21:16:41.692Z,7.22
2023-03-28T21:19:47.360Z,5.40
2023-03-28T21:21:22.433Z,9.57
2023-03-28T21:22:55.764Z,8.35
2023-03-28T21:26:01.880Z,6.78
2023-03-28T21:29:10.718Z,6.70
2023-03-28T21:30:42.599Z,6.20
2023-03-28T21:32:15.992Z,7.72
2023-03-28T21:35:22.260Z,7.32
2023-03-28T21:36:56.518Z,7.88
2023-03-28T21:38:29.438Z,8.85
2023-03-28T21:40:02.409Z,5.97
2023-03-28T21:41:37.008Z,7.82
2023-03-28T21:43:08.948Z,9.80
2023-03-28T21:44:41.812Z,7.32
2023-03-28T21:46:15.121Z,7.90
2023-03-28T21:49:21.596Z,9.48
2023-03-28T21:50:59.017Z,6.40
2023-03-28T21:52:34.997Z,6.95
2023-03-28T21:54:07.906Z,8.98
2023-03-28T21:55:41.027Z,7.35
2023-03-28T21:57:13.985Z,8.43
2023-03-28T21:58:46.930Z,7.63
2023-03-28T22:00:20.701Z,5.68
2023-03-28T22:01:53.728Z,7.43
2023-03-28T22:03:27.550Z,7.75
2023-03-28T22:05:00.598Z,7.22
2023-03-28T22:06:33.555Z,8.75
2023-03-28T22:08:08.554Z,9.13
2023-03-28T22:09:42.712Z,7.60
2023-03-28T22:11:17.423Z,6.22
2023-03-28T22:12:50.393Z,6.63
2023-03-28T22:14:23.297Z,13.88
2023-03-28T22:15:58.411Z,7.80